createdAt,value
2023-03-02T00:00:34.128Z,106.50
2023-03-02T00:03:01.698Z,104.75
2023-03-02T00:05:29.752Z,105.90
2023-03-02T00:07:58.455Z,106.35
2023-03-02T00:10:25.509Z,108.40
2023-03-02T00:12:52.524Z,105.03
2023-03-02T00:15:19.233Z,105.95
2023-03-02T00:17:45.822Z,111.05
2023-03-02T00:20:12.883Z,109.65
2023-03-02T00:22:41.409Z,102.45
2023-03-02T00:25:09.050Z,104.65
2023-03-02T00:27:36.167Z,105.25
2023-03-02T00:30:03.122Z,103.78
2023-03-02T00:32:29.797Z,105.30
2023-03-02T00:34:56.410Z,110.68
2023-03-02T00:37:23.022Z,111.88
2023-03-02T00:39:51.908Z,106.63
2023-03-02T00:42:18.569Z,105.13
2023-03-02T00:44:45.214Z,102.53
2023-03-02T00:47:11.992Z,109.38
2023-03-02T00:49:38.644Z,111.65
2023-03-02T00:52:05.801Z,105.88
2023-03-02T00:54:32.871Z,106.95
2023-03-02T00:56:59.460Z,113.95
2023-03-02T00:59:26.860Z,105.40
2023-03-02T01:01:57.945Z,104.55
2023-03-02T01:04:31.317Z,103.00
2023-03-02T01:06:59.307Z,111.22
2023-03-02T01:09:26.775Z,107.72
2023-03-02T01:11:53.402Z,106.35
2023-03-02T01:14:20.064Z,104.93
2023-03-02T01:16:47.353Z,105.00
2023-03-02T01:19:15.245Z,103.75
2023-03-02T01:21:42.778Z,104.78
2023-03-02T01:24:10.472Z,106.03
2023-03-02T01:26:37.303Z,102.57
2023-03-02T01:29:04.976Z,105.00
2023-03-02T01:31:31.930Z,108.90
2023-03-02T01:33:58.626Z,112.60
2023-03-02T01:36:25.223Z,102.30
2023-03-02T01:38:51.973Z,104.97
2023-03-02T01:41:18.567Z,106.28
2023-03-02T01:43:45.364Z,105.82
2023-03-02T01:46:24.433Z,105.97
2023-03-02T01:48:56.830Z,108.82
2023-03-02T01:51:26.779Z,103.15
2023-03-02T01:54:01.721Z,106.18
2023-03-02T01:56:32.494Z,107.57
2023-03-02T01:59:03.107Z,104.47
2023-03-02T02:01:31.819Z,105.55
2023-03-02T02:03:58.551Z,106.18
2023-03-02T02:06:50.260Z,107.50
2023-03-02T02:09:20.267Z,105.30
2023-03-02T02:11:47.377Z,109.70
2023-03-02T02:14:14.486Z,102.95
2023-03-02T02:16:41.756Z,106.30
2023-03-02T02:19:29.505Z,110.35
2023-03-02T02:21:56.117Z,108.35
2023-03-02T02:24:33.479Z,112.20
2023-03-02T02:27:01.238Z,107.03
2023-03-02T02:29:45.547Z,111.28
2023-03-02T02:32:14.415Z,106.35
2023-03-02T02:35:15.151Z,105.65
2023-03-02T02:37:49.453Z,107.80
2023-03-02T02:40:21.207Z,103.28
2023-03-02T02:42:51.460Z,107.57
2023-03-02T02:45:25.252Z,103.47
2023-03-02T02:47:52.969Z,104.63
2023-03-02T02:50:24.256Z,104.88
2023-03-02T02:53:17.181Z,100.30
2023-03-02T02:55:45.223Z,106.20
2023-03-02T02:58:30.203Z,103.88
2023-03-02T03:00:57.175Z,104.35
2023-03-02T03:03:29.408Z,101.13
2023-03-02T03:05:57.413Z,109.25
2023-03-02T03:09:02.719Z,110.07
2023-03-02T03:11:32.274Z,104.47
2023-03-02T03:14:11.123Z,106.47
2023-03-02T03:16:40.016Z,106.05
2023-03-02T03:19:30.910Z,104.85
2023-03-02T03:22:01.063Z,113.55
2023-03-02T03:24:30.013Z,106.97
2023-03-02T03:26:57.301Z,106.03
2023-03-02T03:29:26.074Z,105.70
2023-03-02T03:31:54.909Z,109.68
2023-03-02T03:34:22.133Z,116.88
2023-03-02T03:36:50.132Z,106.47
2023-03-02T03:39:17.628Z,109.68
2023-03-02T03:41:44.943Z,106.72
2023-03-02T03:44:11.821Z,105.50
2023-03-02T03:46:38.793Z,103.88
2023-03-02T03:49:05.796Z,107.80
2023-03-02T03:51:35.412Z,104.25
2023-03-02T03:54:08.099Z,101.97
2023-03-02T03:56:38.544Z,105.00
2023-03-02T03:59:07.507Z,107.53
2023-03-02T04:01:40.896Z,108.07
2023-03-02T04:04:11.652Z,105.93
2023-03-02T04:06:38.437Z,105.13
2023-03-02T04:09:06.736Z,105.90
2023-03-02T04:11:39.563Z,108.32
2023-03-02T04:14:07.152Z,106.72
2023-03-02T04:16:35.267Z,107.20
2023-03-02T04:19:03.036Z,107.47
2023-03-02T04:21:29.996Z,108.78
2023-03-02T04:23:56.624Z,106.57
2023-03-02T04:26:23.329Z,106.40
2023-03-02T04:28:50.909Z,106.35
2023-03-02T04:31:17.975Z,107.53
2023-03-02T04:33:45.103Z,103.10
2023-03-02T04:36:11.838Z,106.15
2023-03-02T04:38:38.686Z,104.13
2023-03-02T04:41:05.351Z,108.93
2023-03-02T04:43:32.279Z,104.25
2023-03-02T04:45:59.309Z,103.82
2023-03-02T04:48:26.222Z,105.28
2023-03-02T04:50:52.797Z,110.18
2023-03-02T04:53:19.389Z,104.65
2023-03-02T04:55:46.253Z,103.90
2023-03-02T04:58:13.079Z,103.85
2023-03-02T05:00:40.104Z,105.72
2023-03-02T05:03:06.924Z,102.05
2023-03-02T05:05:33.847Z,103.13
2023-03-02T05:08:00.488Z,106.20
2023-03-02T05:10:27.792Z,105.63
2023-03-02T05:12:58.014Z,102.25
2023-03-02T05:15:31.009Z,104.00
2023-03-02T05:17:57.787Z,107.60
2023-03-02T05:20:27.505Z,103.00
2023-03-02T05:22:56.652Z,102.30
2023-03-02T05:25:23.501Z,108.97
2023-03-02T05:27:50.338Z,105.65
2023-03-02T05:30:17.182Z,103.50
2023-03-02T05:32:43.899Z,103.70
2023-03-02T05:35:10.873Z,104.80
2023-03-02T05:37:41.497Z,103.53
2023-03-02T05:40:10.838Z,103.60
2023-03-02T05:42:37.451Z,103.88
2023-03-02T05:45:06.370Z,109.22
2023-03-02T05:47:32.986Z,106.90
2023-03-02T05:49:59.706Z,103.38
2023-03-02T05:52:26.633Z,102.72
2023-03-02T05:54:53.243Z,102.95
2023-03-02T05:57:19.859Z,105.70
2023-03-02T05:59:46.507Z,109.20
2023-03-02T06:02:13.661Z,105.88
2023-03-02T06:04:43.042Z,102.05
2023-03-02T06:07:13.283Z,105.47
2023-03-02T06:09:40.857Z,102.60
2023-03-02T06:12:08.727Z,104.68
2023-03-02T06:14:36.267Z,102.15
2023-03-02T06:17:02.907Z,105.28
2023-03-02T06:19:29.535Z,105.05
2023-03-02T06:21:56.175Z,103.30
2023-03-02T06:24:22.786Z,103.30
2023-03-02T06:26:49.347Z,104.57
2023-03-02T06:29:15.920Z,106.82
2023-03-02T06:31:42.635Z,108.47
2023-03-02T06:34:09.362Z,103.88
2023-03-02T06:36:38.656Z,104.97
2023-03-02T06:39:06.732Z,102.88
2023-03-02T06:41:33.749Z,104.57
2023-03-02T06:44:01.331Z,101.05
2023-03-02T06:46:27.970Z,106.30
2023-03-02T06:48:54.664Z,101.45
2023-03-02T06:51:21.247Z,104.53
2023-03-02T06:53:47.920Z,104.07
2023-03-02T06:56:14.634Z,106.68
2023-03-02T06:58:41.239Z,104.53
2023-03-02T07:01:08.127Z,104.28
2023-03-02T07:03:36.144Z,102.97
2023-03-02T07:06:03.347Z,101.78
2023-03-02T07:08:30.147Z,102.57
2023-03-02T07:10:56.961Z,104.15
2023-03-02T07:13:24.062Z,100.18
2023-03-02T07:15:50.740Z,100.93
2023-03-02T07:18:17.402Z,100.38
2023-03-02T07:20:44.011Z,104.88
2023-03-02T07:23:10.668Z,102.78
2023-03-02T07:25:37.341Z,104.18
2023-03-02T07:28:04.187Z,101.78
2023-03-02T07:30:31.025Z,100.75
2023-03-02T07:32:57.753Z,104.72
2023-03-02T07:35:24.541Z,104.28
2023-03-02T07:37:52.606Z,105.45
2023-03-02T07:40:19.363Z,99.43
2023-03-02T07:42:45.959Z,101.47
2023-03-02T07:45:12.816Z,102.28
2023-03-02T07:47:39.447Z,99.72
2023-03-02T07:50:06.705Z,104.47
2023-03-02T07:52:33.372Z,100.60
2023-03-02T07:54:59.996Z,108.70
2023-03-02T07:57:26.662Z,102.93
2023-03-02T07:59:53.269Z,106.38
2023-03-02T08:02:25.290Z,104.85
2023-03-02T08:04:52.451Z,100.47
2023-03-02T08:07:19.110Z,100.40
2023-03-02T08:09:45.756Z,101.40
2023-03-02T08:12:12.392Z,101.57
2023-03-02T08:14:39.364Z,100.93
2023-03-02T08:17:06.855Z,102.47
2023-03-02T08:19:33.935Z,103.22
2023-03-02T08:22:01.846Z,108.85
2023-03-02T08:24:28.456Z,102.22
2023-03-02T08:26:55.261Z,101.00
2023-03-02T08:29:21.934Z,99.20
2023-03-02T08:31:48.692Z,104.88
2023-03-02T08:34:15.333Z,98.45
2023-03-02T08:36:43.479Z,101.47
2023-03-02T08:39:10.136Z,101.85
2023-03-02T08:41:36.754Z,99.07
2023-03-02T08:44:03.485Z,99.03
2023-03-02T08:46:30.733Z,101.72
2023-03-02T08:48:57.486Z,96.93
2023-03-02T08:51:25.606Z,101.38
2023-03-02T08:53:57.323Z,99.38
2023-03-02T08:56:30.573Z,95.60
2023-03-02T08:59:03.824Z,98.18
2023-03-02T09:01:33.368Z,98.75
2023-03-02T09:04:01.483Z,97.70
2023-03-02T09:06:29.787Z,99.87
2023-03-02T09:08:56.809Z,94.97
2023-03-02T09:11:23.435Z,94.77
2023-03-02T09:13:50.209Z,95.27
2023-03-02T09:16:20.223Z,95.60
2023-03-02T09:18:47.494Z,96.07
2023-03-02T09:21:14.170Z,93.20
2023-03-02T09:23:40.922Z,92.63
2023-03-02T09:26:07.896Z,96.43
2023-03-02T09:28:36.093Z,95.77
2023-03-02T09:31:05.403Z,93.37
2023-03-02T09:33:33.324Z,94.87
2023-03-02T09:36:01.500Z,94.27
2023-03-02T09:38:28.168Z,93.70
2023-03-02T09:41:19.607Z,92.20
2023-03-02T09:44:23.804Z,93.40
2023-03-02T09:46:54.361Z,93.13
2023-03-02T09:49:46.653Z,91.80
2023-03-02T09:52:34.999Z,91.57
2023-03-02T09:55:15.373Z,93.10
2023-03-02T09:57:42.935Z,91.10
2023-03-02T10:00:19.670Z,88.40
2023-03-02T10:02:49.738Z,93.03
2023-03-02T10:05:21.393Z,90.90
2023-03-02T10:07:48.879Z,88.53
2023-03-02T10:10:22.882Z,91.87
2023-03-02T10:13:08.805Z,90.87
2023-03-02T10:15:58.665Z,89.07
2023-03-02T10:18:43.279Z,88.03
2023-03-02T10:21:32.327Z,87.70
2023-03-02T10:24:15.144Z,89.27
2023-03-02T10:26:54.557Z,87.43
2023-03-02T10:29:26.651Z,85.77
2023-03-02T10:32:05.750Z,87.23
2023-03-02T10:34:35.796Z,87.00
2023-03-02T10:37:02.839Z,89.80
2023-03-02T10:39:29.422Z,87.17
2023-03-02T10:42:03.661Z,88.50
2023-03-02T10:44:37.660Z,86.17
2023-03-02T10:47:05.342Z,88.37
2023-03-02T10:49:35.070Z,94.13
2023-03-02T10:52:12.311Z,89.40
2023-03-02T10:54:39.244Z,87.80
2023-03-02T10:57:23.268Z,87.83
2023-03-02T10:59:51.248Z,92.20
2023-03-02T11:02:23.918Z,88.40
2023-03-02T11:05:18.333Z,90.13
2023-03-02T11:08:06.053Z,86.43
2023-03-02T11:10:38.902Z,85.37
2023-03-02T11:13:33.520Z,86.57
2023-03-02T11:16:03.279Z,83.40
2023-03-02T11:18:40.540Z,82.97
2023-03-02T11:21:24.166Z,82.90
2023-03-02T11:24:14.036Z,92.50
2023-03-02T11:26:54.719Z,85.80
2023-03-02T11:29:39.126Z,84.57
2023-03-02T11:32:08.827Z,85.00
2023-03-02T11:34:52.060Z,82.67
2023-03-02T11:37:29.862Z,86.10
2023-03-02T11:40:14.741Z,84.97
2023-03-02T11:42:44.235Z,85.13
2023-03-02T11:45:13.905Z,89.27
2023-03-02T11:48:04.627Z,86.27
2023-03-02T11:50:34.983Z,87.20
2023-03-02T11:53:06.717Z,86.17
2023-03-02T11:55:46.031Z,86.27
2023-03-02T11:58:19.347Z,85.03
2023-03-02T12:00:47.620Z,86.90
2023-03-02T12:03:17.200Z,86.67
2023-03-02T12:05:47.022Z,87.17
2023-03-02T12:08:55.448Z,85.27
2023-03-02T12:11:22.040Z,85.40
2023-03-02T12:13:54.366Z,87.60
2023-03-02T12:16:38.492Z,90.70
2023-03-02T12:19:41.408Z,86.00
2023-03-02T12:22:12.233Z,86.57
2023-03-02T12:24:41.719Z,92.70
2023-03-02T12:27:28.016Z,87.97
2023-03-02T12:30:09.816Z,90.93
2023-03-02T12:32:36.850Z,87.20
2023-03-02T12:35:12.558Z,88.23
2023-03-02T12:37:57.295Z,95.93
2023-03-02T12:40:53.294Z,92.60
2023-03-02T12:43:36.593Z,97.80
2023-03-02T12:46:34.544Z,86.73
2023-03-02T12:49:11.568Z,90.97
2023-03-02T12:51:57.662Z,88.40
2023-03-02T12:54:30.432Z,88.07
2023-03-02T12:57:18.556Z,94.40
2023-03-02T12:59:53.571Z,91.07
2023-03-02T13:02:22.033Z,91.57
2023-03-02T13:04:56.882Z,95.37
2023-03-02T13:07:27.498Z,91.80
2023-03-02T13:09:57.349Z,91.13
2023-03-02T13:12:27.895Z,92.87
2023-03-02T13:14:57.306Z,91.37
2023-03-02T13:17:31.038Z,91.47
2023-03-02T13:20:03.886Z,93.20
2023-03-02T13:22:30.935Z,93.20
2023-03-02T13:25:00.352Z,96.73
2023-03-02T13:27:27.204Z,93.83
2023-03-02T13:29:57.799Z,101.33
2023-03-02T13:32:45.327Z,94.87
2023-03-02T13:35:26.615Z,96.20
2023-03-02T13:38:13.942Z,97.57
2023-03-02T13:40:44.607Z,106.90
2023-03-02T13:43:30.863Z,96.10
2023-03-02T13:46:03.445Z,101.17
2023-03-02T13:48:30.703Z,103.40
2023-03-02T13:51:14.467Z,99.43
2023-03-02T13:53:45.773Z,97.93
2023-03-02T13:56:17.216Z,97.53
2023-03-02T13:58:44.275Z,99.97
2023-03-02T14:01:12.810Z,102.70
2023-03-02T14:03:39.470Z,98.83
2023-03-02T14:06:06.466Z,94.17
2023-03-02T14:08:33.094Z,94.20
2023-03-02T14:11:01.160Z,99.27
2023-03-02T14:13:35.359Z,96.40
2023-03-02T14:16:02.261Z,99.65
2023-03-02T14:18:39.290Z,95.73
2023-03-02T14:21:14.259Z,101.80
2023-03-02T14:23:41.390Z,100.30
2023-03-02T14:26:37.231Z,102.78
2023-03-02T14:29:13.607Z,99.93
2023-03-02T14:31:40.201Z,99.60
2023-03-02T14:34:09.627Z,96.97
2023-03-02T14:36:36.231Z,97.32
2023-03-02T14:39:05.846Z,95.47
2023-03-02T14:41:38.339Z,100.03
2023-03-02T14:44:10.749Z,100.43
2023-03-02T14:46:37.528Z,96.27
2023-03-02T14:49:04.138Z,100.90
2023-03-02T14:51:34.858Z,98.60
2023-03-02T14:54:05.170Z,98.90
2023-03-02T14:56:32.022Z,98.10
2023-03-02T14:58:59.274Z,100.78
2023-03-02T15:01:26.056Z,97.90
2023-03-02T15:03:52.655Z,97.78
2023-03-02T15:06:28.242Z,101.05
2023-03-02T15:08:59.706Z,98.78
2023-03-02T15:11:28.047Z,99.75
2023-03-02T15:13:55.076Z,98.50
2023-03-02T15:16:22.183Z,97.60
2023-03-02T15:18:53.037Z,101.53
2023-03-02T15:21:22.507Z,100.90
2023-03-02T15:23:49.676Z,102.22
2023-03-02T15:26:16.376Z,98.43
2023-03-02T15:28:45.444Z,102.45
2023-03-02T15:31:14.403Z,104.07
2023-03-02T15:33:41.784Z,97.90
2023-03-02T15:36:08.570Z,98.95
2023-03-02T15:38:36.543Z,107.45
2023-03-02T15:41:07.175Z,103.60
2023-03-02T15:43:33.982Z,103.50
2023-03-02T15:46:02.132Z,100.07
2023-03-02T15:48:30.077Z,97.13
2023-03-02T15:51:05.014Z,104.82
2023-03-02T15:53:35.071Z,104.45
2023-03-02T15:56:13.573Z,103.43
2023-03-02T15:58:40.545Z,100.10
2023-03-02T16:01:08.515Z,105.97
2023-03-02T16:03:35.513Z,107.20
2023-03-02T16:06:02.835Z,101.55
2023-03-02T16:08:29.935Z,103.95
2023-03-02T16:11:02.279Z,108.13
2023-03-02T16:13:32.610Z,102.05
2023-03-02T16:16:04.652Z,99.40
2023-03-02T16:18:31.720Z,99.47
2023-03-02T16:20:58.494Z,99.25
2023-03-02T16:23:25.068Z,100.05
2023-03-02T16:25:52.272Z,99.38
2023-03-02T16:28:20.036Z,99.70
2023-03-02T16:30:46.963Z,99.80
2023-03-02T16:33:17.208Z,100.13
2023-03-02T16:35:44.568Z,101.43
2023-03-02T16:38:11.346Z,104.72
2023-03-02T16:40:40.096Z,99.78
2023-03-02T16:43:08.926Z,101.80
2023-03-02T16:45:35.884Z,103.35
2023-03-02T16:48:03.651Z,102.30
2023-03-02T16:50:30.402Z,105.68
2023-03-02T16:52:58.641Z,100.65
2023-03-02T16:55:25.705Z,101.90
2023-03-02T16:57:52.546Z,100.25
2023-03-02T17:00:20.859Z,98.47
2023-03-02T17:02:48.423Z,99.97
2023-03-02T17:05:17.682Z,98.40
2023-03-02T17:07:44.501Z,101.78
2023-03-02T17:10:17.180Z,100.57
2023-03-02T17:12:43.832Z,97.97
2023-03-02T17:15:14.937Z,100.55
2023-03-02T17:17:41.567Z,99.63
2023-03-02T17:20:10.090Z,100.90
2023-03-02T17:22:36.708Z,99.05
2023-03-02T17:25:04.882Z,101.53
2023-03-02T17:27:31.620Z,97.43
2023-03-02T17:29:58.311Z,98.05
2023-03-02T17:32:25.015Z,98.15
2023-03-02T17:34:51.697Z,98.53
2023-03-02T17:37:18.447Z,99.70
2023-03-02T17:39:45.082Z,96.78
2023-03-02T17:42:11.808Z,96.15
2023-03-02T17:44:40.113Z,96.05
2023-03-02T17:47:08.211Z,98.80
2023-03-02T17:49:38.644Z,96.43
2023-03-02T17:52:05.282Z,96.90
2023-03-02T17:54:32.010Z,95.63
2023-03-02T17:56:58.679Z,97.28
2023-03-02T17:59:25.262Z,97.80
2023-03-02T18:01:51.850Z,96.45
2023-03-02T18:04:18.527Z,95.55
2023-03-02T18:06:45.166Z,97.88
2023-03-02T18:09:12.003Z,95.55
2023-03-02T18:11:41.363Z,98.03
2023-03-02T18:14:08.918Z,95.93
2023-03-02T18:16:36.528Z,96.65
2023-03-02T18:19:03.191Z,98.10
2023-03-02T18:21:29.918Z,98.63
2023-03-02T18:23:57.581Z,98.28
2023-03-02T18:26:24.508Z,95.25
2023-03-02T18:28:51.106Z,97.93
2023-03-02T18:31:18.702Z,94.95
2023-03-02T18:33:45.707Z,102.43
2023-03-02T18:36:12.513Z,98.00
2023-03-02T18:38:39.137Z,97.00
2023-03-02T18:41:08.959Z,98.35
2023-03-02T18:43:39.759Z,96.95
2023-03-02T18:46:08.517Z,112.78
2023-03-02T18:48:35.193Z,97.50
2023-03-02T18:51:01.804Z,96.07
2023-03-02T18:53:28.399Z,96.22
2023-03-02T18:55:55.793Z,98.70
2023-03-02T18:58:23.869Z,96.00
2023-03-02T19:00:51.792Z,94.80
2023-03-02T19:03:18.787Z,98.90
2023-03-02T19:05:45.477Z,94.90
2023-03-02T19:08:12.286Z,95.03
2023-03-02T19:10:40.642Z,99.25
2023-03-02T19:13:09.222Z,95.65
2023-03-02T19:15:37.086Z,97.57
2023-03-02T19:18:03.844Z,95.38
2023-03-02T19:20:30.487Z,95.28
2023-03-02T19:22:57.410Z,97.68
2023-03-02T19:25:24.376Z,95.18
2023-03-02T19:27:51.149Z,96.70
2023-03-02T19:30:26.172Z,98.85
2023-03-02T19:32:54.198Z,99.00
2023-03-02T19:35:26.960Z,95.07
2023-03-02T19:37:53.613Z,100.40
2023-03-02T19:40:24.556Z,96.00
2023-03-02T19:42:52.405Z,96.60
2023-03-02T19:45:23.400Z,100.97
2023-03-02T19:47:50.063Z,95.80
2023-03-02T19:50:18.891Z,96.22
2023-03-02T19:52:45.764Z,98.35
2023-03-02T19:55:14.007Z,95.30
2023-03-02T19:57:42.842Z,95.75
2023-03-02T20:00:15.285Z,95.47
2023-03-02T20:02:42.064Z,97.07
2023-03-02T20:05:10.468Z,105.65
2023-03-02T20:07:40.337Z,97.07
2023-03-02T20:10:10.411Z,97.70
2023-03-02T20:12:37.382Z,96.82
2023-03-02T20:15:05.793Z,97.13
2023-03-02T20:17:33.773Z,94.45
2023-03-02T20:20:01.247Z,98.13
2023-03-02T20:22:28.096Z,98.88
2023-03-02T20:24:54.780Z,96.57
2023-03-02T20:27:21.471Z,98.72
2023-03-02T20:29:48.740Z,98.30
2023-03-02T20:32:15.921Z,95.93
2023-03-02T20:34:43.552Z,98.28
2023-03-02T20:37:12.478Z,95.78
2023-03-02T20:39:41.277Z,100.38
2023-03-02T20:42:10.036Z,96.93
2023-03-02T20:44:37.207Z,99.13
2023-03-02T20:47:09.115Z,95.95
2023-03-02T20:49:37.782Z,97.65
2023-03-02T20:52:05.443Z,97.95
2023-03-02T20:54:36.221Z,98.40
2023-03-02T20:57:05.276Z,97.88
2023-03-02T20:59:33.017Z,97.47
2023-03-02T21:01:59.862Z,95.82
2023-03-02T21:04:26.998Z,97.88
2023-03-02T21:06:54.264Z,97.97
2023-03-02T21:09:21.240Z,96.65
2023-03-02T21:11:47.847Z,97.30
2023-03-02T21:14:14.977Z,97.00
2023-03-02T21:16:43.446Z,108.03
2023-03-02T21:19:13.998Z,97.07
2023-03-02T21:21:42.542Z,97.47
2023-03-02T21:24:11.591Z,98.43
2023-03-02T21:26:38.867Z,95.18
2023-03-02T21:29:06.123Z,98.28
2023-03-02T21:31:33.232Z,97.90
2023-03-02T21:34:00.679Z,105.93
2023-03-02T21:36:27.920Z,107.97
2023-03-02T21:38:54.933Z,99.18
2023-03-02T21:41:21.851Z,95.45
2023-03-02T21:43:49.469Z,98.97
2023-03-02T21:46:20.356Z,97.95
2023-03-02T21:48:47.916Z,95.70
2023-03-02T21:51:14.901Z,98.38
2023-03-02T21:53:41.731Z,98.32
2023-03-02T21:56:08.933Z,97.78
2023-03-02T21:58:35.593Z,97.25
2023-03-02T22:01:02.454Z,100.03
2023-03-02T22:03:29.069Z,96.78
2023-03-02T22:05:55.700Z,98.75
2023-03-02T22:08:22.314Z,100.20
2023-03-02T22:10:50.578Z,98.72
2023-03-02T22:13:23.967Z,97.75
2023-03-02T22:15:58.133Z,98.07
2023-03-02T22:18:26.994Z,100.03
2023-03-02T22:20:53.643Z,100.07
2023-03-02T22:23:23.065Z,98.55
2023-03-02T22:25:52.620Z,97.82
2023-03-02T22:28:22.247Z,97.20
2023-03-02T22:30:50.888Z,101.28
2023-03-02T22:33:25.897Z,99.32
2023-03-02T22:35:58.971Z,98.43
2023-03-02T22:38:28.777Z,99.68
2023-03-02T22:40:56.566Z,98.47
2023-03-02T22:43:31.140Z,101.53
2023-03-02T22:46:19.934Z,99.93
2023-03-02T22:48:48.806Z,98.63
2023-03-02T22:51:23.714Z,109.25
2023-03-02T22:53:51.729Z,99.43
2023-03-02T22:56:38.195Z,98.82
2023-03-02T22:59:25.597Z,98.18
2023-03-02T23:02:08.435Z,100.28
2023-03-02T23:04:38.173Z,99.53
2023-03-02T23:07:21.944Z,104.57
2023-03-02T23:09:48.795Z,99.57
2023-03-02T23:12:21.853Z,100.90
2023-03-02T23:14:54.302Z,104.50
2023-03-02T23:17:41.182Z,100.13
2023-03-02T23:20:11.314Z,100.32
2023-03-02T23:22:39.052Z,102.35
2023-03-02T23:25:07.798Z,101.22
2023-03-02T23:27:35.093Z,104.97
2023-03-02T23:30:01.762Z,103.10
2023-03-02T23:32:28.505Z,100.88
2023-03-02T23:34:55.220Z,103.20
2023-03-02T23:37:21.842Z,101.40
2023-03-02T23:39:48.461Z,107.07
2023-03-02T23:42:15.081Z,103.43
2023-03-02T23:44:41.693Z,106.00
2023-03-02T23:47:08.267Z,102.28
2023-03-02T23:49:34.876Z,102.35
2023-03-02T23:52:01.596Z,105.93
2023-03-02T23:54:28.236Z,105.30
2023-03-02T23:56:54.908Z,101.47
2023-03-02T23:59:21.805Z,105.40
